createdAt,value
2019-05-19T00:02:18.788Z,39.58
2019-05-19T00:04:47.232Z,40.45
2019-05-19T00:07:15.693Z,41.40
2019-05-19T00:09:44.151Z,43.65
2019-05-19T00:12:12.580Z,42.10
2019-05-19T00:14:41.052Z,47.45
2019-05-19T00:17:09.546Z,46.55
2019-05-19T00:19:38.072Z,44.10
2019-05-19T00:22:06.518Z,48.85
2019-05-19T00:24:34.992Z,47.60
2019-05-19T00:27:03.532Z,48.73
2019-05-19T00:29:31.982Z,44.33
2019-05-19T00:32:00.421Z,32.65
2019-05-19T00:34:28.902Z,35.30
2019-05-19T00:36:58.834Z,31.17
2019-05-19T00:39:27.284Z,40.10
2019-05-19T00:41:55.889Z,40.28
2019-05-19T00:44:24.331Z,40.15
2019-05-19T00:46:52.789Z,37.75
2019-05-19T00:49:21.308Z,42.17
2019-05-19T00:51:49.822Z,43.60
2019-05-19T00:54:20.366Z,38.98
2019-05-19T00:56:49.688Z,43.13
2019-05-19T00:59:19.271Z,38.98
2019-05-19T01:01:47.762Z,48.30
2019-05-19T01:04:16.200Z,42.93
2019-05-19T01:06:44.917Z,44.27
2019-05-19T01:09:13.438Z,48.80
2019-05-19T01:11:41.875Z,45.73
2019-05-19T01:14:10.343Z,41.33
2019-05-19T01:16:38.796Z,31.60
2019-05-19T01:19:10.017Z,36.95
2019-05-19T01:21:39.711Z,33.35
2019-05-19T01:24:08.168Z,47.78
2019-05-19T01:26:36.623Z,47.33
2019-05-19T01:29:05.210Z,45.20
2019-05-19T01:31:33.696Z,58.20
2019-05-19T01:34:05.192Z,62.88
2019-05-19T01:36:33.718Z,61.00
2019-05-19T01:39:02.164Z,52.95
2019-05-19T01:41:30.644Z,50.33
2019-05-19T01:43:59.138Z,40.30
2019-05-19T01:46:27.596Z,45.88
2019-05-19T01:48:56.049Z,55.33
2019-05-19T01:51:26.043Z,55.58
2019-05-19T01:53:54.589Z,53.10
2019-05-19T01:56:23.035Z,51.98
2019-05-19T01:58:51.492Z,48.20
2019-05-19T02:01:24.052Z,62.75
2019-05-19T02:03:50.106Z,59.88
2019-05-19T02:06:18.556Z,57.53
2019-05-19T02:08:47.096Z,66.92
2019-05-19T02:11:15.613Z,79.60
2019-05-19T02:13:44.076Z,83.67
2019-05-19T02:16:14.177Z,71.60
2019-05-19T02:18:42.633Z,75.32
2019-05-19T02:21:11.082Z,80.00
2019-05-19T02:23:39.533Z,70.42
2019-05-19T02:26:07.992Z,82.30
2019-05-19T02:28:36.433Z,78.83
2019-05-19T02:31:08.024Z,76.22
2019-05-19T02:33:39.224Z,90.50
2019-05-19T02:36:07.860Z,82.88
2019-05-19T02:38:36.313Z,71.20
2019-05-19T02:41:05.896Z,69.32
2019-05-19T02:43:35.024Z,67.45
2019-05-19T02:46:04.611Z,59.27
2019-05-19T02:48:34.000Z,52.90
2019-05-19T02:51:04.378Z,53.90
2019-05-19T02:53:33.235Z,55.17
2019-05-19T02:56:03.304Z,61.35
2019-05-19T02:58:33.371Z,59.00
2019-05-19T03:01:01.822Z,88.67
2019-05-19T03:03:30.292Z,126.18
2019-05-19T03:05:58.749Z,104.53
2019-05-19T03:08:27.201Z,69.55
2019-05-19T03:10:57.328Z,74.25
2019-05-19T03:13:25.775Z,83.65
2019-05-19T03:15:54.241Z,193.50
2019-05-19T03:18:22.756Z,486.62
2019-05-19T03:20:51.222Z,67.65
2019-05-19T03:23:19.664Z,88.17
2019-05-19T03:25:48.148Z,135.32
2019-05-19T03:28:16.656Z,57.50
2019-05-19T03:30:46.754Z,53.52
2019-05-19T03:33:33.018Z,54.03
2019-05-19T03:36:01.466Z,45.52
2019-05-19T03:38:29.933Z,52.10
2019-05-19T03:40:58.372Z,59.42
2019-05-19T03:43:26.828Z,72.00
2019-05-19T03:45:55.289Z,87.40
2019-05-19T03:48:23.732Z,233.90
2019-05-19T03:50:52.187Z,133.57
2019-05-19T03:53:20.627Z,235.10
2019-05-19T03:55:50.462Z,176.63
2019-05-19T03:58:18.902Z,216.40
2019-05-19T04:00:47.370Z,302.87
2019-05-19T04:03:15.807Z,254.90
2019-05-19T04:05:44.315Z,289.95
2019-05-19T04:08:12.764Z,206.68
2019-05-19T04:10:41.204Z,244.03
2019-05-19T04:13:09.660Z,217.35
2019-05-19T04:15:38.111Z,154.40
2019-05-19T04:18:06.630Z,236.25
2019-05-19T04:20:54.411Z,180.93
2019-05-19T04:23:23.848Z,267.68
2019-05-19T04:25:53.824Z,313.57
2019-05-19T04:28:22.540Z,175.82
2019-05-19T04:30:51.057Z,151.40
2019-05-19T04:33:19.600Z,129.32
2019-05-19T04:35:48.031Z,111.20
2019-05-19T04:38:16.473Z,139.62
2019-05-19T04:40:44.931Z,129.70
2019-05-19T04:43:13.405Z,136.60
2019-05-19T04:45:41.879Z,226.18
2019-05-19T04:48:10.331Z,164.57
2019-05-19T04:50:38.801Z,139.20
2019-05-19T04:53:07.239Z,158.75
2019-05-19T04:55:35.691Z,168.07
2019-05-19T04:58:04.134Z,98.07
2019-05-19T05:00:32.661Z,140.80
2019-05-19T05:03:01.180Z,95.80
2019-05-19T05:05:29.627Z,85.55
2019-05-19T05:07:58.265Z,102.22
2019-05-19T05:10:26.785Z,99.42
2019-05-19T05:12:55.489Z,87.82
2019-05-19T05:15:23.957Z,117.90
2019-05-19T05:17:52.431Z,90.22
2019-05-19T05:20:21.090Z,126.62
2019-05-19T05:22:49.527Z,96.17
2019-05-19T05:25:18.939Z,102.90
2019-05-19T05:27:47.402Z,85.97
2019-05-19T05:30:16.180Z,82.72
2019-05-19T05:32:44.644Z,81.97
2019-05-19T05:35:13.231Z,132.65
2019-05-19T05:37:41.696Z,87.25
2019-05-19T05:40:10.510Z,81.47
2019-05-19T05:42:39.063Z,76.37
2019-05-19T05:45:13.349Z,83.45
2019-05-19T05:47:41.835Z,97.82
2019-05-19T05:50:10.725Z,84.40
2019-05-19T05:52:39.315Z,83.78
2019-05-19T05:55:07.971Z,86.32
2019-05-19T05:57:36.408Z,80.62
2019-05-19T06:00:09.230Z,79.80
2019-05-19T06:02:37.670Z,70.32
2019-05-19T06:05:06.882Z,73.62
2019-05-19T06:07:35.322Z,68.15
2019-05-19T06:10:05.819Z,77.85
2019-05-19T06:12:34.263Z,70.17
2019-05-19T06:15:02.720Z,70.37
2019-05-19T06:17:31.176Z,69.15
2019-05-19T06:19:59.637Z,70.12
2019-05-19T06:22:28.092Z,71.37
2019-05-19T06:24:59.123Z,66.35
2019-05-19T06:27:26.716Z,72.45
2019-05-19T06:29:55.239Z,61.15
2019-05-19T06:32:27.863Z,61.37
2019-05-19T06:34:56.328Z,57.83
2019-05-19T06:37:24.813Z,61.60
2019-05-19T06:39:53.286Z,61.53
2019-05-19T06:42:21.732Z,58.20
2019-05-19T06:44:52.763Z,61.45
2019-05-19T06:47:21.238Z,67.58
2019-05-19T06:49:49.748Z,59.42
2019-05-19T06:52:18.209Z,61.08
2019-05-19T06:54:46.647Z,61.28
2019-05-19T06:57:15.094Z,59.50
2019-05-19T06:59:45.176Z,57.08
2019-05-19T07:02:13.623Z,60.05
2019-05-19T07:04:42.151Z,57.90
2019-05-19T07:07:10.624Z,54.33
2019-05-19T07:09:39.140Z,58.05
2019-05-19T07:12:07.628Z,58.73
2019-05-19T07:14:36.148Z,52.80
2019-05-19T07:17:04.608Z,50.30
2019-05-19T07:19:33.047Z,55.10
2019-05-19T07:22:01.506Z,57.48
2019-05-19T07:24:29.954Z,55.12
2019-05-19T07:26:58.415Z,48.63
2019-05-19T07:29:26.921Z,48.70
2019-05-19T07:31:55.398Z,57.40
2019-05-19T07:34:23.899Z,49.38
2019-05-19T07:36:52.351Z,48.70
2019-05-19T07:39:20.871Z,52.17
2019-05-19T07:41:49.321Z,47.35
2019-05-19T07:44:17.788Z,49.67
2019-05-19T07:46:46.247Z,47.40
2019-05-19T07:49:14.694Z,49.60
2019-05-19T07:51:43.201Z,46.30
2019-05-19T07:54:11.796Z,45.65
2019-05-19T07:56:40.242Z,47.50
2019-05-19T07:59:08.677Z,46.35
2019-05-19T08:01:37.146Z,43.52
2019-05-19T08:04:05.600Z,43.52
2019-05-19T08:06:35.074Z,41.42
2019-05-19T08:09:05.242Z,42.45
2019-05-19T08:11:34.037Z,46.90
2019-05-19T08:14:02.723Z,45.15
2019-05-19T08:16:33.715Z,44.77
2019-05-19T08:19:02.158Z,42.65
2019-05-19T08:21:30.614Z,37.65
2019-05-19T08:24:00.800Z,38.60
2019-05-19T08:26:29.317Z,39.80
2019-05-19T08:28:57.763Z,43.55
2019-05-19T08:31:27.194Z,40.60
2019-05-19T08:33:55.704Z,43.20
2019-05-19T08:36:24.240Z,43.87
2019-05-19T08:38:52.752Z,38.48
2019-05-19T08:41:21.200Z,41.20
2019-05-19T08:43:49.643Z,40.10
2019-05-19T08:46:18.109Z,47.48
2019-05-19T08:48:46.570Z,40.92
2019-05-19T08:51:15.019Z,38.95
2019-05-19T08:53:43.484Z,42.48
2019-05-19T08:56:11.942Z,42.80
2019-05-19T08:58:40.477Z,39.48
2019-05-19T09:01:08.920Z,44.53
2019-05-19T09:03:37.416Z,42.10
2019-05-19T09:06:05.909Z,42.65
2019-05-19T09:08:34.358Z,41.63
2019-05-19T09:11:02.825Z,41.77
2019-05-19T09:13:31.262Z,42.88
2019-05-19T09:15:59.734Z,42.60
2019-05-19T09:18:28.179Z,40.92
2019-05-19T09:20:56.627Z,43.40
2019-05-19T09:23:25.083Z,36.08
2019-05-19T09:25:53.529Z,36.17
2019-05-19T09:28:21.975Z,32.75
2019-05-19T09:30:50.434Z,31.62
2019-05-19T09:33:19.058Z,29.48
2019-05-19T09:35:47.515Z,32.75
2019-05-19T09:38:15.962Z,33.23
2019-05-19T09:40:44.403Z,31.35
2019-05-19T09:43:12.864Z,36.95
2019-05-19T09:45:41.300Z,35.75
2019-05-19T09:48:09.831Z,33.10
2019-05-19T09:50:38.280Z,34.00
2019-05-19T09:53:06.720Z,31.35
2019-05-19T09:55:35.185Z,39.67
2019-05-19T09:58:03.614Z,40.20
2019-05-19T10:00:32.448Z,39.13
2019-05-19T10:03:00.896Z,38.00
2019-05-19T10:05:29.356Z,42.38
2019-05-19T10:07:57.804Z,40.52
2019-05-19T10:10:34.149Z,35.78
2019-05-19T10:13:02.619Z,39.25
2019-05-19T10:15:31.114Z,37.33
2019-05-19T10:17:59.579Z,38.90
2019-05-19T10:20:28.024Z,38.73
2019-05-19T10:22:58.584Z,42.67
2019-05-19T10:25:27.027Z,45.17
2019-05-19T10:27:55.487Z,39.35
2019-05-19T10:30:24.089Z,39.83
2019-05-19T10:32:52.532Z,36.42
2019-05-19T10:35:21.020Z,41.13
2019-05-19T10:37:49.549Z,42.80
2019-05-19T10:40:21.085Z,40.05
2019-05-19T10:42:55.639Z,39.83
2019-05-19T10:47:51.790Z,40.48
2019-05-19T10:50:20.250Z,37.60
2019-05-19T10:52:48.793Z,34.65
2019-05-19T10:55:17.234Z,31.05
2019-05-19T10:57:45.695Z,31.45
2019-05-19T11:00:14.475Z,35.23
2019-05-19T11:02:42.998Z,33.13
2019-05-19T11:05:11.905Z,30.97
2019-05-19T11:07:40.360Z,43.58
2019-05-19T11:10:08.882Z,37.73
2019-05-19T11:12:38.959Z,32.45
2019-05-19T11:15:08.156Z,31.27
2019-05-19T11:17:36.603Z,33.50
2019-05-19T11:20:06.097Z,30.68
2019-05-19T11:22:34.529Z,29.57
2019-05-19T11:25:03.199Z,27.07
2019-05-19T11:27:31.671Z,32.15
2019-05-19T11:30:00.147Z,35.92
2019-05-19T11:32:28.596Z,35.73
2019-05-19T11:34:57.026Z,33.15
2019-05-19T11:37:25.475Z,32.93
2019-05-19T11:39:53.920Z,33.05
2019-05-19T11:42:22.371Z,29.37
2019-05-19T11:44:50.815Z,26.50
2019-05-19T11:47:19.258Z,24.87
2019-05-19T11:49:47.706Z,23.02
2019-05-19T11:52:16.148Z,26.60
2019-05-19T11:54:44.599Z,23.50
2019-05-19T11:57:13.029Z,25.57
2019-05-19T11:59:41.491Z,26.50
2019-05-19T12:02:09.952Z,25.25
2019-05-19T12:04:38.392Z,26.20
2019-05-19T12:07:06.845Z,23.32
2019-05-19T12:09:35.299Z,29.85
2019-05-19T12:12:03.748Z,22.52
2019-05-19T12:14:32.201Z,22.45
2019-05-19T12:17:00.650Z,23.45
2019-05-19T12:19:29.088Z,25.48
2019-05-19T12:21:57.541Z,24.40
2019-05-19T12:24:25.976Z,22.67
2019-05-19T12:26:54.446Z,21.73
2019-05-19T12:29:22.874Z,21.73
2019-05-19T12:32:10.672Z,26.77
2019-05-19T12:34:39.102Z,26.45
2019-05-19T12:37:07.543Z,31.00
2019-05-19T12:39:36.001Z,28.47
2019-05-19T12:42:04.499Z,23.95
2019-05-19T12:44:32.952Z,16.20
2019-05-19T12:47:01.398Z,12.65
2019-05-19T12:49:29.886Z,15.10
2019-05-19T12:51:58.343Z,22.65
2019-05-19T12:54:26.824Z,21.30
2019-05-19T12:56:55.320Z,18.50
2019-05-19T12:59:23.759Z,21.25
2019-05-19T13:01:52.208Z,16.10
2019-05-19T13:04:20.653Z,15.90
2019-05-19T13:06:50.818Z,16.75
2019-05-19T13:09:19.319Z,16.90
2019-05-19T13:11:47.756Z,15.45
2019-05-19T13:14:16.213Z,16.30
2019-05-19T13:16:44.650Z,16.02
2019-05-19T13:19:13.109Z,14.58
2019-05-19T13:21:41.550Z,16.65
2019-05-19T13:24:09.987Z,16.17
2019-05-19T13:26:38.449Z,17.15
2019-05-19T13:29:06.914Z,14.85
2019-05-19T13:31:35.387Z,17.40
2019-05-19T13:34:03.940Z,16.07
2019-05-19T13:36:32.395Z,17.62
2019-05-19T13:39:01.216Z,34.70
2019-05-19T13:41:29.658Z,18.90
2019-05-19T13:43:59.756Z,18.07
2019-05-19T13:46:28.609Z,16.70
2019-05-19T13:48:57.078Z,18.55
2019-05-19T13:51:25.531Z,18.60
2019-05-19T13:53:53.974Z,15.30
2019-05-19T13:56:22.402Z,17.60
2019-05-19T13:58:50.860Z,14.13
2019-05-19T14:01:28.242Z,11.50
2019-05-19T14:03:52.159Z,15.45
2019-05-19T14:06:19.745Z,18.02
2019-05-19T14:08:48.182Z,17.17
2019-05-19T14:11:16.628Z,17.25
2019-05-19T14:13:45.068Z,19.07
2019-05-19T14:16:13.520Z,21.12
2019-05-19T14:18:41.974Z,21.05
2019-05-19T14:21:10.406Z,20.72
2019-05-19T14:23:39.610Z,15.35
2019-05-19T14:26:08.131Z,16.35
2019-05-19T14:28:36.588Z,14.78
2019-05-19T14:31:05.042Z,14.93
2019-05-19T14:33:33.503Z,20.40
2019-05-19T14:36:02.000Z,21.00
2019-05-19T14:38:30.490Z,19.65
2019-05-19T14:40:58.976Z,21.55
2019-05-19T14:43:29.067Z,20.85
2019-05-19T14:45:57.537Z,19.15
2019-05-19T14:48:25.974Z,19.62
2019-05-19T14:50:54.436Z,18.90
2019-05-19T14:53:22.878Z,17.85
2019-05-19T14:55:51.327Z,24.92
2019-05-19T14:58:19.782Z,21.23
2019-05-19T15:00:48.229Z,20.40
2019-05-19T15:03:16.694Z,19.67
2019-05-19T15:05:45.137Z,22.05
2019-05-19T15:08:13.588Z,19.80
2019-05-19T15:10:42.026Z,22.77
2019-05-19T15:13:10.487Z,18.82
2019-05-19T15:15:38.929Z,21.57
2019-05-19T15:18:07.370Z,22.30
2019-05-19T15:20:35.819Z,21.70
2019-05-19T15:23:04.267Z,26.45
2019-05-19T15:25:32.716Z,30.62
2019-05-19T15:28:05.034Z,21.15
2019-05-19T15:30:31.352Z,19.40
2019-05-19T15:32:59.883Z,18.67
2019-05-19T15:35:28.329Z,16.73
2019-05-19T15:38:00.068Z,15.88
2019-05-19T15:40:28.507Z,14.75
2019-05-19T15:42:56.963Z,10.48
2019-05-19T15:45:25.420Z,10.88
2019-05-19T15:47:53.856Z,9.75
2019-05-19T15:50:22.377Z,13.15
2019-05-19T15:52:50.817Z,8.88
2019-05-19T15:55:19.269Z,9.75
2019-05-19T15:57:47.703Z,12.13
2019-05-19T16:00:16.910Z,13.80
2019-05-19T16:02:45.356Z,16.25
2019-05-19T16:05:14.723Z,12.93
2019-05-19T16:07:43.301Z,17.12
2019-05-19T16:10:12.423Z,13.32
2019-05-19T16:12:40.880Z,8.65
2019-05-19T16:15:09.694Z,7.45
2019-05-19T16:17:38.146Z,7.33
2019-05-19T16:20:08.293Z,8.50
2019-05-19T16:22:37.735Z,7.87
2019-05-19T16:25:07.451Z,4.35
2019-05-19T16:27:36.017Z,4.42
2019-05-19T16:30:07.287Z,4.85
2019-05-19T16:32:35.743Z,7.35
2019-05-19T16:35:06.566Z,4.50
2019-05-19T16:37:35.042Z,4.92
2019-05-19T16:40:03.638Z,4.83
2019-05-19T16:42:32.079Z,5.45
2019-05-19T16:45:00.537Z,4.75
2019-05-19T16:47:28.965Z,7.62
2019-05-19T16:49:57.411Z,10.10
2019-05-19T16:52:25.861Z,4.87
2019-05-19T16:55:10.889Z,6.47
2019-05-19T17:00:07.107Z,5.03
2019-05-19T17:02:35.561Z,4.00
2019-05-19T17:05:05.735Z,6.65
2019-05-19T17:07:34.179Z,4.62
2019-05-19T17:10:02.662Z,5.35
2019-05-19T17:12:31.136Z,4.90
2019-05-19T17:14:59.572Z,9.88
2019-05-19T17:17:28.008Z,12.73
2019-05-19T17:19:56.451Z,6.78
2019-05-19T17:22:24.892Z,5.53
2019-05-19T17:24:53.343Z,7.33
2019-05-19T17:27:21.776Z,4.47
2019-05-19T17:29:50.223Z,5.67
2019-05-19T17:32:18.660Z,6.12
2019-05-19T17:34:47.110Z,5.90
2019-05-19T17:37:15.543Z,6.35
2019-05-19T17:39:43.979Z,8.10
2019-05-19T17:42:13.859Z,8.25
2019-05-19T17:44:44.106Z,6.97
2019-05-19T17:47:12.544Z,5.25
2019-05-19T17:49:40.988Z,10.10
2019-05-19T17:52:09.441Z,6.37
2019-05-19T17:54:38.047Z,4.45
2019-05-19T17:57:06.501Z,8.43
2019-05-19T17:59:35.687Z,5.25
2019-05-19T18:02:04.295Z,5.47
2019-05-19T18:04:32.732Z,8.30
2019-05-19T18:07:01.185Z,7.50
2019-05-19T18:09:29.631Z,5.47
2019-05-19T18:11:58.077Z,6.70
2019-05-19T18:14:26.540Z,4.85
2019-05-19T18:16:54.984Z,12.88
2019-05-19T18:19:23.424Z,6.55
2019-05-19T18:21:51.876Z,10.32
2019-05-19T18:24:20.332Z,6.40
2019-05-19T18:26:48.846Z,7.55
2019-05-19T18:29:30.463Z,8.03
2019-05-19T18:31:47.457Z,9.10
2019-05-19T18:34:15.913Z,9.73
2019-05-19T18:36:46.043Z,7.72
2019-05-19T18:39:14.475Z,7.75
2019-05-19T18:41:42.939Z,11.48
2019-05-19T18:44:11.444Z,15.25
2019-05-19T18:46:39.905Z,9.55
2019-05-19T18:49:08.426Z,10.72
2019-05-19T18:51:36.865Z,9.30
2019-05-19T18:54:05.299Z,11.48
2019-05-19T18:56:33.774Z,10.28
2019-05-19T18:59:02.228Z,12.45
2019-05-19T19:01:31.030Z,11.97
2019-05-19T19:03:59.483Z,18.17
2019-05-19T19:06:30.142Z,18.65
2019-05-19T19:08:58.591Z,21.00
2019-05-19T19:11:27.041Z,16.85
2019-05-19T19:13:55.487Z,19.57
2019-05-19T19:16:24.008Z,19.60
2019-05-19T19:18:52.448Z,20.72
2019-05-19T19:21:20.905Z,26.65
2019-05-19T19:23:49.348Z,24.05
2019-05-19T19:26:17.800Z,22.62
2019-05-19T19:28:46.277Z,23.87
2019-05-19T19:31:14.771Z,25.95
2019-05-19T19:33:45.144Z,29.12
2019-05-19T19:36:15.922Z,26.90
2019-05-19T19:38:44.358Z,28.38
2019-05-19T19:41:12.818Z,24.57
2019-05-19T19:43:41.339Z,23.18
2019-05-19T19:46:09.788Z,25.55
2019-05-19T19:48:38.277Z,27.77
2019-05-19T19:51:20.070Z,24.52
2019-05-19T19:53:48.527Z,24.40
2019-05-19T19:56:17.012Z,24.45
2019-05-19T19:58:45.491Z,25.88
2019-05-19T20:01:13.943Z,26.45
2019-05-19T20:03:42.400Z,26.73
2019-05-19T20:06:10.869Z,29.65
2019-05-19T20:08:39.323Z,33.75
2019-05-19T20:11:07.772Z,30.25
2019-05-19T20:13:36.218Z,31.82
2019-05-19T20:16:04.684Z,30.32
2019-05-19T20:18:39.145Z,31.68
2019-05-19T20:21:11.450Z,28.45
2019-05-19T20:23:43.038Z,28.98
2019-05-19T20:26:11.496Z,29.45
2019-05-19T20:28:39.954Z,32.15
2019-05-19T20:31:08.406Z,34.38
2019-05-19T20:33:36.860Z,35.40
2019-05-19T20:36:05.401Z,34.70
2019-05-19T20:38:33.845Z,37.45
2019-05-19T20:41:02.301Z,39.58
2019-05-19T20:43:30.756Z,42.98
2019-05-19T20:45:59.192Z,46.10
2019-05-19T20:48:27.662Z,45.50
2019-05-19T20:50:56.094Z,46.15
2019-05-19T20:53:24.568Z,49.83
2019-05-19T20:55:53.008Z,48.52
2019-05-19T20:58:21.460Z,49.23
2019-05-19T21:00:51.864Z,49.20
2019-05-19T21:03:20.089Z,55.35
2019-05-19T21:05:48.544Z,60.28
2019-05-19T21:08:16.978Z,65.35
2019-05-19T21:10:45.420Z,64.53
2019-05-19T21:13:13.863Z,57.65
2019-05-19T21:15:42.391Z,65.45
2019-05-19T21:18:10.852Z,71.53
2019-05-19T21:20:40.955Z,64.17
2019-05-19T21:23:09.490Z,70.00
2019-05-19T21:25:37.928Z,68.97
2019-05-19T21:28:06.384Z,68.97
2019-05-19T21:30:34.836Z,70.30
2019-05-19T21:33:03.292Z,68.02
2019-05-19T21:35:32.120Z,70.97
2019-05-19T21:38:00.577Z,70.80
2019-05-19T21:40:29.036Z,75.57
2019-05-19T21:43:04.113Z,69.97
2019-05-19T21:45:32.569Z,69.60
2019-05-19T21:48:01.009Z,79.17
2019-05-19T21:50:29.471Z,71.92
2019-05-19T21:52:57.930Z,69.40
2019-05-19T21:55:26.360Z,73.10
2019-05-19T21:57:56.770Z,66.45
2019-05-19T22:00:26.923Z,70.17
2019-05-19T22:02:55.377Z,70.05
2019-05-19T22:05:23.835Z,67.40
2019-05-19T22:08:02.719Z,75.32
2019-05-19T22:10:31.150Z,73.95
2019-05-19T22:12:59.617Z,72.30
2019-05-19T22:15:28.051Z,78.42
2019-05-19T22:17:56.518Z,79.55
2019-05-19T22:20:25.078Z,80.72
2019-05-19T22:22:53.565Z,75.17
2019-05-19T22:25:22.032Z,78.60
2019-05-19T22:27:50.480Z,79.80
2019-05-19T22:30:19.189Z,78.55
2019-05-19T22:32:47.636Z,80.10
2019-05-19T22:35:16.339Z,79.30
2019-05-19T22:37:44.793Z,84.50
2019-05-19T22:40:13.368Z,90.12
2019-05-19T22:42:41.832Z,86.78
2019-05-19T22:45:10.413Z,85.92
2019-05-19T22:47:39.922Z,87.00
2019-05-19T22:50:09.321Z,81.22
2019-05-19T22:52:37.770Z,87.70
2019-05-19T22:55:07.667Z,88.60
2019-05-19T22:57:36.146Z,87.60
2019-05-19T23:00:07.304Z,85.75
2019-05-19T23:02:35.758Z,92.15
2019-05-19T23:05:06.310Z,88.50
2019-05-19T23:07:34.900Z,89.22
2019-05-19T23:10:04.826Z,91.05
2019-05-19T23:12:33.314Z,94.42
2019-05-19T23:15:01.774Z,94.58
2019-05-19T23:17:30.212Z,86.42
2019-05-19T23:19:58.675Z,91.63
2019-05-19T23:22:27.123Z,94.30
2019-05-19T23:24:55.808Z,99.50
2019-05-19T23:27:24.256Z,99.80
2019-05-19T23:29:52.705Z,97.70
2019-05-19T23:32:21.173Z,94.55
2019-05-19T23:34:49.611Z,93.80
2019-05-19T23:37:18.077Z,91.97
2019-05-19T23:39:46.610Z,92.70
2019-05-19T23:42:15.070Z,88.10
2019-05-19T23:44:43.522Z,93.90
2019-05-19T23:47:11.966Z,98.47
2019-05-19T23:49:40.420Z,91.65
2019-05-19T23:52:08.868Z,87.90
2019-05-19T23:54:38.952Z,93.97
2019-05-19T23:57:07.423Z,97.08
2019-05-19T23:59:35.873Z,104.47
